createdAt,value
2023-04-15T00:02:14.651Z,74.68
2023-04-15T00:07:16.408Z,75.43
2023-04-15T00:12:22.423Z,75.39
2023-04-15T00:17:26.926Z,75.53
2023-04-15T00:22:30.668Z,76.17
2023-04-15T00:27:33.602Z,76.33
2023-04-15T00:32:38.106Z,75.89
2023-04-15T00:37:45.928Z,75.57
2023-04-15T00:42:49.220Z,75.39
2023-04-15T00:47:55.252Z,76.57
2023-04-15T00:52:57.021Z,76.70
2023-04-15T00:58:09.625Z,77.17
2023-04-15T01:03:11.439Z,76.20
2023-04-15T01:08:13.203Z,76.77
2023-04-15T01:13:16.133Z,76.78
2023-04-15T01:18:18.013Z,76.71
2023-04-15T01:23:20.124Z,76.94
2023-04-15T01:28:27.445Z,76.58
2023-04-15T01:33:31.501Z,76.94
2023-04-15T01:38:33.362Z,77.20
2023-04-15T01:43:37.770Z,78.13
2023-04-15T01:48:39.788Z,77.79
2023-04-15T01:53:41.442Z,77.55
2023-04-15T01:58:45.055Z,77.47
2023-04-15T02:03:47.108Z,77.35
2023-04-15T02:08:50.271Z,77.46
2023-04-15T02:13:55.706Z,77.14
2023-04-15T02:18:57.302Z,76.56
2023-04-15T02:23:58.956Z,75.91
2023-04-15T02:29:02.077Z,76.32
2023-04-15T02:34:05.662Z,76.73
2023-04-15T02:39:09.889Z,77.84
2023-04-15T02:44:12.928Z,77.52
2023-04-15T02:49:14.723Z,77.69
2023-04-15T02:54:20.339Z,77.45
2023-04-15T02:59:23.689Z,78.40
2023-04-15T03:04:27.232Z,78.57
2023-04-15T03:09:36.611Z,79.01
2023-04-15T03:14:43.126Z,78.94
2023-04-15T03:19:44.843Z,78.41
2023-04-15T03:24:50.087Z,79.38
2023-04-15T03:29:53.234Z,79.08
2023-04-15T03:34:58.929Z,79.08
2023-04-15T03:40:02.612Z,79.31
2023-04-15T03:45:09.690Z,79.31
2023-04-15T03:50:14.064Z,78.91
2023-04-15T03:55:23.842Z,77.76
2023-04-15T04:00:26.831Z,78.40
2023-04-15T04:05:28.477Z,79.25
2023-04-15T04:10:33.239Z,78.92
2023-04-15T04:15:37.820Z,77.52
2023-04-15T04:20:39.554Z,77.16
2023-04-15T04:25:44.275Z,77.18
2023-04-15T04:30:49.895Z,77.44
2023-04-15T04:35:51.482Z,77.52
2023-04-15T04:40:53.067Z,76.69
2023-04-15T04:45:56.085Z,76.57
2023-04-15T04:50:57.848Z,76.26
2023-04-15T04:55:59.478Z,76.68
2023-04-15T05:01:02.505Z,76.83
2023-04-15T05:06:04.243Z,75.46
2023-04-15T05:11:05.915Z,75.62
2023-04-15T05:16:11.639Z,74.63
2023-04-15T05:21:15.220Z,74.27
2023-04-15T05:26:16.883Z,74.26
2023-04-15T05:31:23.049Z,75.09
2023-04-15T05:36:24.657Z,73.03
2023-04-15T05:41:28.807Z,73.21
2023-04-15T05:46:34.689Z,72.35
2023-04-15T05:51:36.769Z,72.82
2023-04-15T05:56:43.017Z,72.33
2023-04-15T06:01:48.572Z,72.34
2023-04-15T06:06:51.932Z,72.75
2023-04-15T06:11:53.530Z,72.13
2023-04-15T06:16:57.988Z,71.17
2023-04-15T06:21:59.644Z,69.11
2023-04-15T06:27:07.186Z,67.00
2023-04-15T06:32:13.394Z,64.91
2023-04-15T06:37:16.796Z,61.00
2023-04-15T06:42:21.222Z,58.41
2023-04-15T06:47:26.089Z,56.65
2023-04-15T06:52:27.744Z,56.67
2023-04-15T06:57:29.693Z,56.85
2023-04-15T07:02:32.847Z,53.25
2023-04-15T07:07:34.635Z,49.70
2023-04-15T07:12:36.294Z,51.04
2023-04-15T07:17:41.909Z,51.67
2023-04-15T07:22:43.602Z,48.98
2023-04-15T07:27:45.273Z,47.47
2023-04-15T07:32:52.214Z,45.17
2023-04-15T07:37:56.868Z,44.27
2023-04-15T07:42:58.567Z,43.89
2023-04-15T07:48:04.805Z,43.98
2023-04-15T07:53:07.000Z,43.34
2023-04-15T07:58:11.110Z,41.41
2023-04-15T08:03:17.305Z,42.86
2023-04-15T08:08:18.999Z,40.95
2023-04-15T08:13:20.633Z,40.50
2023-04-15T08:18:26.293Z,41.97
2023-04-15T08:23:27.897Z,40.79
2023-04-15T08:28:32.656Z,43.41
2023-04-15T08:33:38.224Z,44.63
2023-04-15T08:38:39.889Z,45.99
2023-04-15T08:43:51.926Z,42.35
2023-04-15T08:49:03.394Z,42.83
2023-04-15T08:54:10.456Z,44.26
2023-04-15T08:59:12.129Z,44.13
2023-04-15T09:04:15.201Z,44.27
2023-04-15T09:09:19.467Z,43.40
2023-04-15T09:14:24.048Z,45.65
2023-04-15T09:19:31.757Z,44.20
2023-04-15T09:24:37.449Z,44.39
2023-04-15T09:29:44.289Z,42.83
2023-04-15T09:34:49.214Z,42.65
2023-04-15T09:39:51.971Z,42.00
2023-04-15T09:44:53.903Z,42.32
2023-04-15T09:49:57.700Z,41.64
2023-04-15T09:55:02.877Z,42.54
2023-04-15T10:00:13.760Z,42.23
2023-04-15T10:05:20.682Z,42.53
2023-04-15T10:10:25.697Z,43.14
2023-04-15T10:15:29.956Z,40.73
2023-04-15T10:20:33.873Z,42.74
2023-04-15T10:25:47.221Z,38.24
2023-04-15T10:30:51.382Z,35.97
2023-04-15T10:35:57.800Z,36.67
2023-04-15T10:41:12.657Z,37.67
2023-04-15T10:46:14.699Z,39.83
2023-04-15T10:51:31.620Z,41.16
2023-04-15T10:56:35.989Z,40.44
2023-04-15T11:01:56.810Z,43.01
2023-04-15T11:07:06.925Z,38.31
2023-04-15T11:12:15.135Z,38.10
2023-04-15T11:17:27.382Z,38.02
2023-04-15T11:22:30.428Z,38.76
2023-04-15T11:27:37.709Z,41.94
2023-04-15T11:32:55.668Z,40.66
2023-04-15T11:38:02.498Z,41.67
2023-04-15T11:43:10.020Z,41.92
2023-04-15T11:48:14.272Z,44.68
2023-04-15T11:53:18.744Z,41.27
2023-04-15T11:58:24.000Z,44.71
2023-04-15T12:03:29.823Z,46.11
2023-04-15T12:09:14.322Z,47.47
2023-04-15T12:14:24.707Z,54.12
2023-04-15T12:19:30.599Z,53.72
2023-04-15T12:24:33.055Z,54.66
2023-04-15T12:29:41.306Z,56.22
2023-04-15T12:34:52.078Z,56.35
2023-04-15T12:39:53.789Z,58.92
2023-04-15T12:44:58.068Z,57.23
2023-04-15T12:50:02.817Z,57.18
2023-04-15T12:55:07.805Z,55.81
2023-04-15T13:00:14.911Z,57.32
2023-04-15T13:05:20.166Z,56.12
2023-04-15T13:10:21.947Z,56.79
2023-04-15T13:15:29.654Z,58.44
2023-04-15T13:20:35.176Z,60.30
2023-04-15T13:25:38.652Z,62.42
2023-04-15T13:30:41.760Z,62.09
2023-04-15T13:35:47.544Z,64.69
2023-04-15T13:40:49.151Z,62.60
2023-04-15T13:45:52.203Z,65.31
2023-04-15T13:51:00.349Z,65.89
2023-04-15T13:56:02.139Z,66.25
2023-04-15T14:01:07.737Z,65.67
2023-04-15T14:06:16.855Z,67.37
2023-04-15T14:11:21.329Z,66.72
2023-04-15T14:16:24.552Z,66.74
2023-04-15T14:21:33.721Z,68.73
2023-04-15T14:26:35.401Z,69.79
2023-04-15T14:31:40.308Z,69.43
2023-04-15T14:36:44.896Z,68.75
2023-04-15T14:41:51.324Z,67.73
2023-04-15T14:46:54.368Z,69.31
2023-04-15T14:51:57.886Z,69.17
2023-04-15T14:56:59.575Z,68.55
2023-04-15T15:02:10.484Z,68.86
2023-04-15T15:07:16.913Z,70.37
2023-04-15T15:12:23.802Z,72.92
2023-04-15T15:17:28.167Z,69.63
2023-04-15T15:22:31.522Z,71.05
2023-04-15T15:27:51.045Z,71.27
2023-04-15T15:32:57.126Z,70.96
2023-04-15T15:37:59.736Z,72.51
2023-04-15T15:43:04.086Z,73.68
2023-04-15T15:48:10.930Z,72.03
2023-04-15T15:53:15.783Z,72.08
2023-04-15T15:58:17.869Z,71.80
2023-04-15T16:03:23.630Z,72.88
2023-04-15T16:08:31.511Z,73.93
2023-04-15T16:13:34.873Z,73.35
2023-04-15T16:18:38.184Z,74.97
2023-04-15T16:23:44.862Z,73.42
2023-04-15T16:28:46.549Z,74.24
2023-04-15T16:33:49.604Z,73.64
2023-04-15T16:38:54.009Z,74.47
2023-04-15T16:43:58.598Z,75.23
2023-04-15T16:49:06.561Z,76.64
2023-04-15T16:54:08.653Z,75.20
2023-04-15T16:59:11.807Z,76.16
2023-04-15T17:04:20.352Z,77.17
2023-04-15T17:09:27.777Z,77.02
2023-04-15T17:14:32.555Z,77.78
2023-04-15T17:19:35.583Z,77.11
2023-04-15T17:24:40.162Z,77.71
2023-04-15T17:29:44.294Z,77.68
2023-04-15T17:34:57.179Z,76.80
2023-04-15T17:39:58.887Z,76.34
2023-04-15T17:45:00.572Z,77.04
2023-04-15T17:50:03.828Z,77.34
2023-04-15T17:55:07.226Z,77.04
2023-04-15T18:00:22.429Z,76.33
2023-04-15T18:05:33.810Z,76.38
2023-04-15T18:10:35.948Z,76.53
2023-04-15T18:15:39.305Z,77.85
2023-04-15T18:20:45.539Z,76.53
2023-04-15T18:25:50.749Z,76.80
2023-04-15T18:30:52.386Z,77.37
2023-04-15T18:35:58.468Z,77.99
2023-04-15T18:41:05.074Z,76.86
2023-04-15T18:46:07.207Z,77.68
2023-04-15T18:51:16.404Z,78.23
2023-04-15T18:56:23.799Z,78.29
2023-04-15T19:01:25.550Z,77.66
2023-04-15T19:06:41.007Z,76.73
2023-04-15T19:11:48.902Z,77.34
2023-04-15T19:16:59.723Z,76.86
2023-04-15T19:22:02.938Z,76.99
2023-04-15T19:27:04.663Z,76.37
2023-04-15T19:32:09.260Z,76.42
2023-04-15T19:37:17.940Z,76.17
2023-04-15T19:42:19.557Z,75.59
2023-04-15T19:47:21.375Z,75.98
2023-04-15T19:52:24.419Z,75.80
2023-04-15T19:57:26.183Z,75.73
2023-04-15T20:02:29.118Z,75.65
2023-04-15T20:07:32.214Z,75.78
2023-04-15T20:12:51.301Z,76.06
2023-04-15T20:17:56.545Z,75.27
2023-04-15T20:23:02.663Z,75.07
2023-04-15T20:28:06.968Z,73.64
2023-04-15T20:33:13.701Z,73.90
2023-04-15T20:38:16.886Z,74.07
2023-04-15T20:43:18.540Z,73.31
2023-04-15T20:48:20.185Z,73.61
2023-04-15T20:53:24.379Z,73.59
2023-04-15T20:58:28.968Z,74.05
2023-04-15T21:03:30.894Z,73.56
2023-04-15T21:08:34.044Z,73.71
2023-04-15T21:13:38.478Z,73.03
2023-04-15T21:18:44.570Z,74.00
2023-04-15T21:23:47.626Z,73.88
2023-04-15T21:28:49.666Z,73.30
2023-04-15T21:33:54.088Z,73.78
2023-04-15T21:39:02.171Z,74.61
2023-04-15T21:44:06.038Z,74.63
2023-04-15T21:49:08.267Z,74.50
2023-04-15T21:54:12.853Z,74.17
2023-04-15T21:59:16.217Z,74.68
2023-04-15T22:04:17.958Z,74.15
2023-04-15T22:09:24.085Z,74.65
2023-04-15T22:14:25.809Z,75.01
2023-04-15T22:19:27.492Z,74.86
2023-04-15T22:24:39.976Z,74.71
2023-04-15T22:29:42.290Z,75.12
2023-04-15T22:34:43.928Z,74.72
2023-04-15T22:39:49.824Z,74.83
2023-04-15T22:44:57.663Z,75.59
2023-04-15T22:50:10.297Z,75.93
2023-04-15T22:55:16.551Z,75.39
2023-04-15T23:00:23.851Z,75.21
2023-04-15T23:05:25.685Z,76.08
2023-04-15T23:10:31.473Z,74.74
2023-04-15T23:15:38.877Z,75.87
2023-04-15T23:20:44.954Z,74.71
2023-04-15T23:25:50.567Z,74.90
2023-04-15T23:30:52.265Z,75.16
2023-04-15T23:35:57.001Z,75.00
2023-04-15T23:41:01.711Z,74.75
2023-04-15T23:46:03.484Z,75.01
2023-04-15T23:51:07.643Z,75.18
2023-04-15T23:56:12.632Z,74.59
